Disclaimer

Please do not use the information listed here in-flight or in-navigation, as they are not provided to us by the airports but are provided by volunteers, so they might be outdated.

Search


Regions


Airport information page

Radio informations:
LEON TWR - 118.35 MHz
Automatic Terminal Information Service (ATIS) - 128.4 MHz
LEON APP - 119.05 MHz

Airport informations:
Latitude: 20° 59' 36.47" N
Longitude: 101° 28' 51.05" W
Elevation: 5956 feet - 1815 meters
Operating hours: Remarks
Operating agency: Civil government, landing fees and diplomatic clearance may be required
Timezone: UTC-6(-5DT) - First Sunday in April to the last Saturday in October
Fuel: Jet A1, without icing nhibitor.

Runway information:
13/31 - 11480 x 148 feet< - >3499 x 45 meters

Recent METARs:
MMLO 191547Z 21004KT 10SM SCT220 18/05 A3039 RMK 8/002
MMLO 191547Z 21004KT 10SM SCT220 18/05 A3039 RMK 8/002
MMLO 191649Z 00000KT 10SM SCT220 20/05 A3039 RMK 8/002

Airport on the map: